Terminal Aerodrome Forecast
Issued by NWS

Home | Current Version | Previous Version | Text Only | Print | Product List | Glossary On
Versions: 1 2 3 4 5 6 7 8 9 10 11 12
000
FTUS46 KSEW 201720
TAFCLM
TAF
KCLM 201720Z 2018/2118 33006KT P6SM SCT050 BKN080
     FM210300 29008KT P6SM SCT080
     FM210900 27003KT P6SM OVC015
     FM211600 28004KT P6SM FEW020 BKN150=

USA.gov is the U.S. government's official web portal to all federal, state and local government web resources and services.